KSPG

Albert Whitted Airport

St Petersburg, Florida, USA
METAR KSPG 210353Z AUTO 03005KT 10SM CLR 15/11 A3022 RMK AO2 SLP233 T01500106
Observed Flight Rules
Jan-21 @ 03:53 UTC (57 minutes ago) Visual Flight Rules
Wind Visibility Clouds
30° at 5 knots 10 miles
  • Clear skies
Temperatures Readings
Current 15°C / 59°F
Dewpoint 11°C / 52°F
Humidity 77%
Altimeter 30.22" Hg
Pressure 1023.3 hPa
Elevation 2
METAR KSPG 210353Z AUTO 03005KT 10SM CLR 15/11 A3022 RMK AO2 SLP233 T01500106
Observed Flight Rules
Jan-21 @ 03:53 UTC
(57 minutes ago)
VFR
Wind Visibility
30° at 5 knots 10 miles
Clouds
  • Clear skies
Temperature Dewpoint
15°C / 59°F 11°C / 52°F
Humidity Altimeter Pressure
77% 30.22" Hg 1023.3 hPa